ADDS METAR Data INFO
IDs: Format: Raw Decoded Include TAF

Data at: 1234 UTC 20 Jul 2017

Region: TOP
KATL 201152Z 32006KT 10SM FEW250 24/22 A3012 RMK AO2 SLP188 T02440217 10256 20228 53007

KBOS 201154Z 27007KT 10SM FEW080 27/18 A2996 RMK AO2 SLP143 T02720183 10272 20217 53009

KBWI 201154Z 25003KT 7SM SCT250 27/23 A3001 RMK AO2 SLP160 T02720233 10272 20228 53006

KCLE 201151Z 23008KT 10SM BKN250 25/21 A3005 RMK AO2 SLP168 T02500206 10256 20233 53006

KCLT 201152Z 26003KT 10SM FEW110 FEW250 24/21 A3010 RMK AO2 SLP184 70018 T02440211 10244 20217 53006

KCVG 201152Z 23003KT 7SM FEW150 BKN230 BKN300 23/22 A3012 RMK AO2 SLP186 T02280222 10233 20189 53012

KDCA 201152Z 00000KT 10SM BKN250 28/23 A3002 RMK AO2 SLP167 T02830233 10289 20261 53008

KDEN 201153Z 23006KT 10SM SCT140 SCT220 18/13 A3025 RMK AO2 SLP156 T01830128 10244 20183 51007 $

KDFW 201153Z 19006KT 10SM FEW140 27/23 A3010 RMK AO2 SLP182 T02670233 10289 20267 51011 $

KDTW 201153Z 22009KT 10SM SCT095 BKN150 OVC210 24/22 A2999 RMK AO2 SLP151 T02440222 10244 20228 53002

KEWR 201151Z 00000KT 9SM FEW150 BKN250 27/22 A2997 RMK AO2 SLP150 T02720217 10283 20250 53005

KFLL 201153Z 26003KT 10SM FEW025 FEW180 BKN250 28/25 A3007 RMK SLP182 70015 T02780250 10283 20267 53010 $

KIAD 201152Z 00000KT 10SM BKN250 26/22 A3003 RMK AO2 SLP166 T02610222 10261 20222 53008

KIAH 201153Z 00000KT 10SM FEW020 FEW250 25/24 A3012 RMK AO2 SLP197 CB DSNT SE T02500244 10278 20250 53008

KJFK 201151Z 22005KT 8SM FEW100 BKN270 27/25 A2999 RMK AO2 SLP154 T02720250 10283 20250 53008

KLAS 201156Z 00000KT 10SM BKN120 OVC200 29/20 A2997 RMK AO2 SLP124 VCSH 70009 T02890200 10300 20289 53006

KLAX 201153Z 33003KT 8SM BKN011 21/18 A2997 RMK AO2 SLP148 T02060183 10206 20194 53002 $

KLGA 201151Z 08004KT 10SM FEW150 BKN250 27/23 A2997 RMK AO2 SLP148 T02720228 10294 20250 53006

KMCO 201153Z 00000KT 10SM FEW008 FEW025 SCT250 24/24 A3009 RMK AO2 SLP189 CB DSNT W 70006 T02440239 10244 20222 53008

KMDW 201224Z 14006KT 3SM TSRA BR FEW020 BKN039CB OVC085 22/21 A3006 RMK AO2 LTG DSNT ALQDS FRQ LTGICCCCG OHD TS OHD MOV SE P0020 T02170211

KMEM 201154Z 19004KT 10SM FEW250 27/24 A3012 RMK AO2 SLP193 T02670244 10283 20256 53009

KMIA 201153Z 00000KT 10SM FEW020 FEW180 SCT300 29/25 A3008 RMK AO2 SLP186 CB DSNT NE AND W MOV N 70010 T02890250 10289 20261 53010 $

KMSP 201225Z 21004KT 5SM BR BKN005 BKN300 21/19 A3001 RMK AO2 T02110194

KORD 201231Z 35010KT 2 1/2SM +TSRA BR FEW005 BKN027 OVC043CB 21/20 A3009 RMK AO2 LTG DSNT ALQDS PRESRR OCNL LTGICCG OHD TS OHD MOV SE P0012 T02110200

KPDX 201153Z 16008KT 10SM SCT038 BKN060 16/11 A3012 RMK AO2 SLP196 T01560111 10194 20156 53006 $

KPHL 201154Z 23006KT 8SM FEW300 BKN350 28/23 A3000 RMK AO2 SLP158 T02780233 10278 20261 53007 $

KPHX 201151Z 17004KT 10SM BKN140 BKN210 30/18 A2994 RMK AO2 SLP116 T03000183 10344 20300 53004

KPIT 201151Z 00000KT 7SM FEW140 BKN250 24/21 A3007 RMK AO2 SLP180 T02390211 10244 20217 51010

KSAN 201151Z 21003KT 9SM BKN011 OVC160 22/19 A2998 RMK AO2 SLP152 T02170189 10222 20217 58001

KSEA 201153Z 17006KT 10SM BKN017 OVC080 16/12 A3008 RMK AO2 SLP189 T01610117 10172 20161 53004

KSFO 201156Z 29006KT 10SM FEW008 13/11 A3003 RMK AO2 SLP167 T01330106 10144 20133 53004

KSLC 201154Z COR 15012KT 10SM SCT130 BKN160 26/14 A3006 RMK AO2 SLP118 T02560139 10267 20256 53007

KSTL 201151Z 24009KT 10SM OVC250 28/21 A3006 RMK AO2 SLP163 T02830206 10306 20283 53010

KTPA 201153Z 00000KT 10SM FEW015 SCT200 27/24 A3009 RMK AO2 SLP187 CB DSNT SW-NW 70001 T02670239 10267 20256 51009